sensor_id;sensor_type;location;lat;lon;timestamp;pressure;altitude;pressure_sealevel;temperature;humidity
7614;BME280;3848;42.016;23.098;2023-02-02T00:01:00;97385.72;;;2.42;100.00
7614;BME280;3848;42.016;23.098;2023-02-02T00:06:14;97381.66;;;2.46;100.00
7614;BME280;3848;42.016;23.098;2023-02-02T00:08:42;97388.41;;;2.49;100.00
7614;BME280;3848;42.016;23.098;2023-02-02T00:11:09;97385.88;;;2.49;100.00
7614;BME280;3848;42.016;23.098;2023-02-02T00:13:36;97388.50;;;2.52;100.00
7614;BME280;3848;42.016;23.098;2023-02-02T00:19:06;97373.34;;;2.49;100.00
7614;BME280;3848;42.016;23.098;2023-02-02T00:21:35;97391.41;;;2.67;100.00
7614;BME280;3848;42.016;23.098;2023-02-02T00:24:03;97389.03;;;2.71;100.00
7614;BME280;3848;42.016;23.098;2023-02-02T00:26:29;97377.38;;;2.73;100.00
7614;BME280;3848;42.016;23.098;2023-02-02T00:28:56;97385.81;;;2.75;100.00
7614;BME280;3848;42.016;23.098;2023-02-02T00:31:23;97383.25;;;2.74;100.00
7614;BME280;3848;42.016;23.098;2023-02-02T00:33:50;97384.41;;;2.87;100.00
7614;BME280;3848;42.016;23.098;2023-02-02T00:36:18;97388.69;;;2.91;100.00
7614;BME280;3848;42.016;23.098;2023-02-02T00:38:46;97385.25;;;2.87;100.00
7614;BME280;3848;42.016;23.098;2023-02-02T00:41:13;97380.84;;;2.79;100.00
7614;BME280;3848;42.016;23.098;2023-02-02T00:43:40;97377.50;;;2.78;100.00
7614;BME280;3848;42.016;23.098;2023-02-02T00:46:09;97400.22;;;2.84;100.00
7614;BME280;3848;42.016;23.098;2023-02-02T00:48:36;97390.00;;;2.77;100.00
7614;BME280;3848;42.016;23.098;2023-02-02T00:51:03;97393.41;;;2.79;100.00
7614;BME280;3848;42.016;23.098;2023-02-02T00:53:30;97385.59;;;2.68;100.00
7614;BME280;3848;42.016;23.098;2023-02-02T00:55:58;97388.00;;;2.65;100.00
7614;BME280;3848;42.016;23.098;2023-02-02T00:58:25;97384.69;;;2.66;100.00
7614;BME280;3848;42.016;23.098;2023-02-02T01:00:52;97383.84;;;2.65;100.00
7614;BME280;3848;42.016;23.098;2023-02-02T01:03:18;97377.91;;;2.62;100.00
7614;BME280;3848;42.016;23.098;2023-02-02T01:05:45;97386.22;;;2.61;100.00
7614;BME280;3848;42.016;23.098;2023-02-02T01:08:14;97379.38;;;2.54;100.00
7614;BME280;3848;42.016;23.098;2023-02-02T01:10:41;97379.78;;;2.39;100.00
7614;BME280;3848;42.016;23.098;2023-02-02T01:13:09;97378.03;;;2.36;100.00
7614;BME280;3848;42.016;23.098;2023-02-02T01:15:36;97379.97;;;2.47;100.00
7614;BME280;3848;42.016;23.098;2023-02-02T01:18:03;97380.06;;;2.50;100.00
7614;BME280;3848;42.016;23.098;2023-02-02T01:20:30;97384.31;;;2.51;100.00
7614;BME280;3848;42.016;23.098;2023-02-02T01:22:56;97387.84;;;2.59;100.00
7614;BME280;3848;42.016;23.098;2023-02-02T01:25:23;97377.81;;;2.59;100.00
7614;BME280;3848;42.016;23.098;2023-02-02T01:27:51;97379.53;;;2.60;100.00
7614;BME280;3848;42.016;23.098;2023-02-02T01:30:20;97389.50;;;2.58;100.00
7614;BME280;3848;42.016;23.098;2023-02-02T01:32:46;97386.09;;;2.55;100.00
7614;BME280;3848;42.016;23.098;2023-02-02T01:35:13;97381.09;;;2.56;100.00
7614;BME280;3848;42.016;23.098;2023-02-02T01:37:40;97376.16;;;2.59;100.00
7614;BME280;3848;42.016;23.098;2023-02-02T01:40:08;97366.13;;;2.59;100.00
7614;BME280;3848;42.016;23.098;2023-02-02T01:42:35;97374.59;;;2.63;100.00
7614;BME280;3848;42.016;23.098;2023-02-02T01:45:15;97363.47;;;2.53;100.00
7614;BME280;3848;42.016;23.098;2023-02-02T01:47:47;97351.69;;;2.51;100.00
7614;BME280;3848;42.016;23.098;2023-02-02T01:50:16;97363.47;;;2.53;100.00
7614;BME280;3848;42.016;23.098;2023-02-02T01:52:46;97355.09;;;2.53;100.00
7614;BME280;3848;42.016;23.098;2023-02-02T01:55:15;97348.78;;;2.35;100.00
7614;BME280;3848;42.016;23.098;2023-02-02T01:57:45;97358.97;;;2.41;100.00
7614;BME280;3848;42.016;23.098;2023-02-02T02:00:16;97358.63;;;2.29;100.00
7614;BME280;3848;42.016;23.098;2023-02-02T02:02:52;97343.59;;;2.29;100.00
7614;BME280;3848;42.016;23.098;2023-02-02T02:05:24;97352.03;;;2.33;100.00
7614;BME280;3848;42.016;23.098;2023-02-02T02:07:52;97359.53;;;2.31;100.00
7614;BME280;3848;42.016;23.098;2023-02-02T02:10:21;97369.38;;;2.25;100.00
7614;BME280;3848;42.016;23.098;2023-02-02T02:12:48;97371.16;;;2.29;100.00
7614;BME280;3848;42.016;23.098;2023-02-02T02:15:15;97371.16;;;2.29;100.00
7614;BME280;3848;42.016;23.098;2023-02-02T02:18:08;97321.06;;;2.01;100.00
7614;BME280;3848;42.016;23.098;2023-02-02T02:24:49;97373.31;;;2.47;100.00
7614;BME280;3848;42.016;23.098;2023-02-02T02:31:10;97370.91;;;2.50;100.00
7614;BME280;3848;42.016;23.098;2023-02-02T02:33:45;97367.53;;;2.50;100.00
7614;BME280;3848;42.016;23.098;2023-02-02T02:36:18;97360.66;;;2.42;100.00
7614;BME280;3848;42.016;23.098;2023-02-02T02:38:50;97357.34;;;2.43;100.00
7614;BME280;3848;42.016;23.098;2023-02-02T02:41:27;97358.00;;;2.36;100.00
7614;BME280;3848;42.016;23.098;2023-02-02T02:43:58;97356.28;;;2.35;100.00
7614;BME280;3848;42.016;23.098;2023-02-02T02:46:26;97360.47;;;2.35;100.00
7614;BME280;3848;42.016;23.098;2023-02-02T02:48:57;97337.53;;;2.23;100.00
7614;BME280;3848;42.016;23.098;2023-02-02T02:51:43;97357.75;;;2.29;100.00
7614;BME280;3848;42.016;23.098;2023-02-02T02:54:11;97354.97;;;2.18;100.00
7614;BME280;3848;42.016;23.098;2023-02-02T02:56:46;97360.03;;;2.20;100.00
7614;BME280;3848;42.016;23.098;2023-02-02T02:59:23;97359.22;;;2.21;100.00
7614;BME280;3848;42.016;23.098;2023-02-02T03:02:03;97355.84;;;2.20;100.00
7614;BME280;3848;42.016;23.098;2023-02-02T03:04:38;97344.81;;;2.13;100.00
7614;BME280;3848;42.016;23.098;2023-02-02T03:07:12;97342.97;;;2.08;100.00
7614;BME280;3848;42.016;23.098;2023-02-02T03:09:43;97350.69;;;2.14;100.00
7614;BME280;3848;42.016;23.098;2023-02-02T03:12:11;97335.28;;;2.02;100.00
7614;BME280;3848;42.016;23.098;2023-02-02T03:14:38;97349.63;;;2.07;100.00
7614;BME280;3848;42.016;23.098;2023-02-02T03:17:05;97364.63;;;2.06;100.00
7614;BME280;3848;42.016;23.098;2023-02-02T03:19:33;97373.56;;;1.96;100.00
7614;BME280;3848;42.016;23.098;2023-02-02T03:22:00;97371.00;;;1.95;100.00
7614;BME280;3848;42.016;23.098;2023-02-02T03:24:27;97365.06;;;1.91;100.00
7614;BME280;3848;42.016;23.098;2023-02-02T03:26:54;97362.41;;;1.87;100.00
7614;BME280;3848;42.016;23.098;2023-02-02T03:29:21;97369.69;;;1.79;100.00
7614;BME280;3848;42.016;23.098;2023-02-02T03:31:48;97370.50;;;1.78;100.00
7614;BME280;3848;42.016;23.098;2023-02-02T03:34:15;97372.63;;;1.66;100.00
7614;BME280;3848;42.016;23.098;2023-02-02T03:36:43;97364.03;;;1.58;100.00
7614;BME280;3848;42.016;23.098;2023-02-02T03:39:10;97378.31;;;1.60;100.00
7614;BME280;3848;42.016;23.098;2023-02-02T03:41:37;97361.22;;;1.47;100.00
7614;BME280;3848;42.016;23.098;2023-02-02T03:44:04;97368.03;;;1.51;100.00
7614;BME280;3848;42.016;23.098;2023-02-02T03:46:30;97368.56;;;1.42;100.00
7614;BME280;3848;42.016;23.098;2023-02-02T03:48:57;97356.91;;;1.43;100.00
7614;BME280;3848;42.016;23.098;2023-02-02T03:51:24;97361.84;;;1.41;100.00
7614;BME280;3848;42.016;23.098;2023-02-02T03:53:52;97361.81;;;1.40;100.00
7614;BME280;3848;42.016;23.098;2023-02-02T03:56:19;97368.97;;;1.28;100.00
7614;BME280;3848;42.016;23.098;2023-02-02T03:58:45;97364.34;;;1.14;100.00
7614;BME280;3848;42.016;23.098;2023-02-02T04:01:13;97362.25;;;1.01;100.00
7614;BME280;3848;42.016;23.098;2023-02-02T04:03:40;97361.34;;;0.99;100.00
7614;BME280;3848;42.016;23.098;2023-02-02T04:06:07;97368.81;;;0.98;100.00
7614;BME280;3848;42.016;23.098;2023-02-02T04:08:33;97367.16;;;0.98;100.00
7614;BME280;3848;42.016;23.098;2023-02-02T04:11:02;97366.34;;;0.99;100.00
7614;BME280;3848;42.016;23.098;2023-02-02T04:13:29;97359.75;;;1.01;100.00
7614;BME280;3848;42.016;23.098;2023-02-02T04:15:56;97353.94;;;1.02;100.00
7614;BME280;3848;42.016;23.098;2023-02-02T04:18:24;97346.47;;;1.04;100.00
7614;BME280;3848;42.016;23.098;2023-02-02T04:20:55;97353.22;;;1.05;100.00
7614;BME280;3848;42.016;23.098;2023-02-02T04:23:22;97363.81;;;0.98;100.00
7614;BME280;3848;42.016;23.098;2023-02-02T04:25:49;97335.63;;;0.78;100.00
7614;BME280;3848;42.016;23.098;2023-02-02T04:28:18;97355.31;;;0.93;100.00
7614;BME280;3848;42.016;23.098;2023-02-02T04:30:45;97365.41;;;0.96;100.00
7614;BME280;3848;42.016;23.098;2023-02-02T04:33:11;97361.34;;;0.99;100.00
7614;BME280;3848;42.016;23.098;2023-02-02T04:35:38;97366.34;;;0.99;100.00
7614;BME280;3848;42.016;23.098;2023-02-02T04:38:05;97371.34;;;0.99;100.00
7614;BME280;3848;42.016;23.098;2023-02-02T04:40:32;97377.25;;;1.01;100.00
7614;BME280;3848;42.016;23.098;2023-02-02T04:42:58;97376.41;;;1.01;100.00
7614;BME280;3848;42.016;23.098;2023-02-02T04:45:26;97330.00;;;0.59;100.00
7614;BME280;3848;42.016;23.098;2023-02-02T04:47:53;97376.06;;;0.90;100.00
7614;BME280;3848;42.016;23.098;2023-02-02T04:50:20;97390.31;;;0.93;100.00
7614;BME280;3848;42.016;23.098;2023-02-02T04:52:47;97390.97;;;0.87;100.00
7614;BME280;3848;42.016;23.098;2023-02-02T04:55:14;97400.94;;;0.85;100.00
7614;BME280;3848;42.016;23.098;2023-02-02T04:57:40;97405.97;;;0.87;100.00
7614;BME280;3848;42.016;23.098;2023-02-02T05:00:08;97401.13;;;0.91;100.00
7614;BME280;3848;42.016;23.098;2023-02-02T05:02:38;97395.38;;;0.94;100.00
7614;BME280;3848;42.016;23.098;2023-02-02T05:05:07;97385.06;;;0.85;100.00
7614;BME280;3848;42.016;23.098;2023-02-02T05:07:34;97411.19;;;0.93;100.00
7614;BME280;3848;42.016;23.098;2023-02-02T05:10:01;97403.06;;;1.00;100.00
7614;BME280;3848;42.016;23.098;2023-02-02T05:12:28;97406.38;;;0.99;100.00
7614;BME280;3848;42.016;23.098;2023-02-02T05:14:54;97413.03;;;0.99;100.00
7614;BME280;3848;42.016;23.098;2023-02-02T05:17:21;97401.03;;;0.88;100.00
7614;BME280;3848;42.016;23.098;2023-02-02T05:19:49;97416.84;;;0.87;100.00
7614;BME280;3848;42.016;23.098;2023-02-02T05:22:16;97419.66;;;0.73;100.00
7614;BME280;3848;42.016;23.098;2023-02-02T05:24:43;97437.09;;;0.25;100.00
7614;BME280;3848;42.016;23.098;2023-02-02T05:27:10;97425.63;;;0.30;100.00
7614;BME280;3848;42.016;23.098;2023-02-02T05:29:36;97446.06;;;0.42;100.00
7614;BME280;3848;42.016;23.098;2023-02-02T05:32:03;97444.03;;;0.32;100.00
7614;BME280;3848;42.016;23.098;2023-02-02T05:34:30;97435.72;;;0.33;100.00
7614;BME280;3848;42.016;23.098;2023-02-02T05:36:58;97432.31;;;0.31;100.00
7614;BME280;3848;42.016;23.098;2023-02-02T05:39:25;97437.44;;;0.34;100.00
7614;BME280;3848;42.016;23.098;2023-02-02T05:41:52;97431.69;;;0.37;100.00
7614;BME280;3848;42.016;23.098;2023-02-02T05:44:18;97433.84;;;0.50;100.00
7614;BME280;3848;42.016;23.098;2023-02-02T05:46:45;97440.34;;;0.45;100.00
7614;BME280;3848;42.016;23.098;2023-02-02T05:49:12;97441.28;;;0.48;100.00
7614;BME280;3848;42.016;23.098;2023-02-02T05:51:41;97430.44;;;0.48;100.00
7614;BME280;3848;42.016;23.098;2023-02-02T05:54:11;97377.84;;;0.21;100.00
7614;BME280;3848;42.016;23.098;2023-02-02T05:56:43;97454.34;;;0.64;100.00
7614;BME280;3848;42.016;23.098;2023-02-02T05:59:10;97412.00;;;0.44;100.00
7614;BME280;3848;42.016;23.098;2023-02-02T06:01:37;97454.44;;;0.67;100.00
7614;BME280;3848;42.016;23.098;2023-02-02T06:04:05;97451.09;;;0.66;100.00
7614;BME280;3848;42.016;23.098;2023-02-02T06:06:31;97441.41;;;0.75;100.00
7614;BME280;3848;42.016;23.098;2023-02-02T06:08:59;97437.94;;;0.72;100.00
7614;BME280;3848;42.016;23.098;2023-02-02T06:11:28;97431.25;;;0.71;100.00
7614;BME280;3848;42.016;23.098;2023-02-02T06:13:55;97446.50;;;0.78;100.00
7614;BME280;3848;42.016;23.098;2023-02-02T06:16:22;97439.69;;;0.74;100.00
7614;BME280;3848;42.016;23.098;2023-02-02T06:18:49;97442.94;;;0.72;100.00
7614;BME280;3848;42.016;23.098;2023-02-02T06:21:16;97445.75;;;0.57;100.00
7614;BME280;3848;42.016;23.098;2023-02-02T06:23:44;97468.88;;;0.51;100.00
7614;BME280;3848;42.016;23.098;2023-02-02T06:26:11;97449.88;;;0.33;100.00
7614;BME280;3848;42.016;23.098;2023-02-02T06:28:39;97461.56;;;0.34;100.00
7614;BME280;3848;42.016;23.098;2023-02-02T06:31:07;97459.06;;;0.34;100.00
7614;BME280;3848;42.016;23.098;2023-02-02T06:33:34;97460.09;;;0.39;100.00
7614;BME280;3848;42.016;23.098;2023-02-02T06:36:05;97481.50;;;0.32;100.00
7614;BME280;3848;42.016;23.098;2023-02-02T06:38:32;97469.53;;;0.23;100.00
7614;BME280;3848;42.016;23.098;2023-02-02T06:40:59;97473.44;;;0.17;100.00
7614;BME280;3848;42.016;23.098;2023-02-02T06:43:26;97470.72;;;0.11;100.00
7614;BME280;3848;42.016;23.098;2023-02-02T06:45:56;97466.47;;;-0.13;100.00
7614;BME280;3848;42.016;23.098;2023-02-02T06:48:23;97482.81;;;0.00;100.00
7614;BME280;3848;42.016;23.098;2023-02-02T06:50:49;97478.19;;;0.11;100.00
7614;BME280;3848;42.016;23.098;2023-02-02T06:53:17;97492.66;;;0.19;100.00
7614;BME280;3848;42.016;23.098;2023-02-02T06:55:52;97494.59;;;0.04;100.00
7614;BME280;3848;42.016;23.098;2023-02-02T06:58:19;97490.97;;;0.18;100.00
7614;BME280;3848;42.016;23.098;2023-02-02T07:00:45;97500.06;;;0.39;100.00
7614;BME280;3848;42.016;23.098;2023-02-02T07:03:14;97478.31;;;0.58;100.00
7614;BME280;3848;42.016;23.098;2023-02-02T07:05:41;97477.31;;;0.77;100.00
7614;BME280;3848;42.016;23.098;2023-02-02T07:08:07;97477.22;;;0.98;100.00
7614;BME280;3848;42.016;23.098;2023-02-02T07:10:35;97404.41;;;0.65;100.00
7614;BME280;3848;42.016;23.098;2023-02-02T07:13:03;97466.34;;;1.21;100.00
7614;BME280;3848;42.016;23.098;2023-02-02T07:15:31;97457.44;;;1.30;100.00
7614;BME280;3848;42.016;23.098;2023-02-02T07:17:58;97457.66;;;1.36;100.00
7614;BME280;3848;42.016;23.098;2023-02-02T07:20:26;97453.41;;;1.33;100.00
7614;BME280;3848;42.016;23.098;2023-02-02T07:22:53;97461.03;;;1.38;100.00
7614;BME280;3848;42.016;23.098;2023-02-02T07:25:20;97463.78;;;1.45;100.00
7614;BME280;3848;42.016;23.098;2023-02-02T07:27:48;97474.31;;;1.61;100.00
7614;BME280;3848;42.016;23.098;2023-02-02T07:30:18;97474.81;;;1.76;100.00
7614;BME280;3848;42.016;23.098;2023-02-02T07:32:45;97470.25;;;1.90;100.00
7614;BME280;3848;42.016;23.098;2023-02-02T07:35:13;97468.09;;;2.02;100.00
7614;BME280;3848;42.016;23.098;2023-02-02T07:37:41;97474.44;;;2.18;100.00
7614;BME280;3848;42.016;23.098;2023-02-02T07:40:10;97474.03;;;2.32;100.00
7614;BME280;3848;42.016;23.098;2023-02-02T07:42:37;97481.88;;;2.43;100.00
7614;BME280;3848;42.016;23.098;2023-02-02T07:45:04;97413.41;;;2.17;100.00
7614;BME280;3848;42.016;23.098;2023-02-02T07:47:32;97465.47;;;2.54;100.00
7614;BME280;3848;42.016;23.098;2023-02-02T07:49:59;97456.53;;;2.64;100.00
7614;BME280;3848;42.016;23.098;2023-02-02T07:52:27;97454.06;;;2.65;100.00
7614;BME280;3848;42.016;23.098;2023-02-02T07:54:56;97452.53;;;2.70;100.00
7614;BME280;3848;42.016;23.098;2023-02-02T07:57:22;97447.69;;;2.75;100.00
7614;BME280;3848;42.016;23.098;2023-02-02T07:59:49;97457.72;;;2.75;100.00
7614;BME280;3848;42.016;23.098;2023-02-02T08:02:16;97447.38;;;2.64;100.00
7614;BME280;3848;42.016;23.098;2023-02-02T08:04:43;97442.09;;;2.55;100.00
7614;BME280;3848;42.016;23.098;2023-02-02T08:07:11;97444.66;;;2.57;100.00
7614;BME280;3848;42.016;23.098;2023-02-02T08:09:38;97450.75;;;2.66;100.00
7614;BME280;3848;42.016;23.098;2023-02-02T08:12:06;97445.09;;;2.72;100.00
7614;BME280;3848;42.016;23.098;2023-02-02T08:14:34;97439.44;;;2.81;100.00
7614;BME280;3848;42.016;23.098;2023-02-02T08:17:01;97439.69;;;2.90;100.00
7614;BME280;3848;42.016;23.098;2023-02-02T08:19:27;97439.94;;;2.99;100.00
7614;BME280;3848;42.016;23.098;2023-02-02T08:21:54;97434.16;;;3.01;100.00
7614;BME280;3848;42.016;23.098;2023-02-02T08:24:21;97432.88;;;3.16;100.00
7614;BME280;3848;42.016;23.098;2023-02-02T08:26:48;97420.53;;;3.25;100.00
7614;BME280;3848;42.016;23.098;2023-02-02T08:29:16;97425.97;;;3.42;100.00
7614;BME280;3848;42.016;23.098;2023-02-02T08:31:43;97414.56;;;3.54;100.00
7614;BME280;3848;42.016;23.098;2023-02-02T08:34:11;97406.44;;;3.64;100.00
7614;BME280;3848;42.016;23.098;2023-02-02T08:36:39;97415.66;;;3.65;100.00
7614;BME280;3848;42.016;23.098;2023-02-02T08:39:09;97415.66;;;3.65;100.00
7614;BME280;3848;42.016;23.098;2023-02-02T08:41:37;97415.84;;;3.75;100.00
7614;BME280;3848;42.016;23.098;2023-02-02T08:44:05;97412.72;;;3.83;100.00
7614;BME280;3848;42.016;23.098;2023-02-02T08:46:33;97408.97;;;4.02;100.00
7614;BME280;3848;42.016;23.098;2023-02-02T08:49:00;97404.06;;;4.08;100.00
7614;BME280;3848;42.016;23.098;2023-02-02T08:51:27;97403.47;;;4.20;100.00
7614;BME280;3848;42.016;23.098;2023-02-02T08:53:54;97400.41;;;4.35;100.00
7614;BME280;3848;42.016;23.098;2023-02-02T08:56:23;97388.03;;;4.44;100.00
7614;BME280;3848;42.016;23.098;2023-02-02T08:58:51;97391.84;;;4.67;100.00
7614;BME280;3848;42.016;23.098;2023-02-02T09:01:20;97384.53;;;4.79;100.00
7614;BME280;3848;42.016;23.098;2023-02-02T09:03:52;97374.78;;;4.98;100.00
7614;BME280;3848;42.016;23.098;2023-02-02T09:06:20;97381.88;;;5.20;100.00
7614;BME280;3848;42.016;23.098;2023-02-02T09:08:47;97385.50;;;5.34;100.00
7614;BME280;3848;42.016;23.098;2023-02-02T09:11:15;97384.94;;;5.52;100.00
7614;BME280;3848;42.016;23.098;2023-02-02T09:13:46;97378.56;;;5.75;100.00
7614;BME280;3848;42.016;23.098;2023-02-02T09:16:15;97374.47;;;5.82;100.00
7614;BME280;3848;42.016;23.098;2023-02-02T09:18:43;97351.13;;;5.94;100.00
7614;BME280;3848;42.016;23.098;2023-02-02T09:21:14;97365.75;;;6.18;100.00
7614;BME280;3848;42.016;23.098;2023-02-02T09:23:42;97356.69;;;6.32;100.00
7614;BME280;3848;42.016;23.098;2023-02-02T09:26:10;97356.94;;;6.53;100.00
7614;BME280;3848;42.016;23.098;2023-02-02T09:28:38;97353.63;;;6.60;100.00
7614;BME280;3848;42.016;23.098;2023-02-02T09:31:05;97356.50;;;6.91;100.00
7614;BME280;3848;42.016;23.098;2023-02-02T09:33:39;97350.91;;;7.25;100.00
7614;BME280;3848;42.016;23.098;2023-02-02T09:36:07;97340.44;;;7.92;100.00
7614;BME280;3848;42.016;23.098;2023-02-02T09:38:36;97336.63;;;9.08;100.00
7614;BME280;3848;42.016;23.098;2023-02-02T09:41:18;97308.59;;;10.15;89.09
7614;BME280;3848;42.016;23.098;2023-02-02T09:43:54;97243.16;;;10.67;76.70
7614;BME280;3848;42.016;23.098;2023-02-02T09:46:34;97308.66;;;11.44;66.14
7614;BME280;3848;42.016;23.098;2023-02-02T09:49:07;97301.88;;;11.47;64.46
7614;BME280;3848;42.016;23.098;2023-02-02T09:51:39;97299.09;;;11.72;66.74
7614;BME280;3848;42.016;23.098;2023-02-02T09:54:15;97297.06;;;12.04;60.64
7614;BME280;3848;42.016;23.098;2023-02-02T09:56:47;97298.47;;;12.31;59.03
7614;BME280;3848;42.016;23.098;2023-02-02T09:59:18;97198.25;;;12.32;58.88
7614;BME280;3848;42.016;23.098;2023-02-02T10:01:46;97275.13;;;13.20;61.19
7614;BME280;3848;42.016;23.098;2023-02-02T10:04:18;97268.31;;;13.22;56.63
7614;BME280;3848;42.016;23.098;2023-02-02T10:06:49;97267.09;;;12.88;56.57
7614;BME280;3848;42.016;23.098;2023-02-02T10:09:29;97228.53;;;12.54;56.17
7614;BME280;3848;42.016;23.098;2023-02-02T10:12:04;97255.31;;;12.80;55.92
7614;BME280;3848;42.016;23.098;2023-02-02T10:14:37;97239.00;;;12.91;55.27
7614;BME280;3848;42.016;23.098;2023-02-02T10:17:29;97248.09;;;13.07;55.08
7614;BME280;3848;42.016;23.098;2023-02-02T10:20:09;97223.34;;;13.63;53.54
7614;BME280;3848;42.016;23.098;2023-02-02T10:22:40;97231.97;;;14.44;53.06
7614;BME280;3848;42.016;23.098;2023-02-02T10:25:13;97223.81;;;15.02;51.12
7614;BME280;3848;42.016;23.098;2023-02-02T10:27:46;97221.50;;;15.58;49.00
7614;BME280;3848;42.016;23.098;2023-02-02T10:30:19;97220.31;;;16.04;47.56
7614;BME280;3848;42.016;23.098;2023-02-02T10:32:58;97212.41;;;16.39;45.67
7614;BME280;3848;42.016;23.098;2023-02-02T10:35:34;97202.69;;;16.79;45.34
7614;BME280;3848;42.016;23.098;2023-02-02T10:38:12;97205.63;;;17.19;42.30
7614;BME280;3848;42.016;23.098;2023-02-02T10:40:52;97203.03;;;16.94;41.32
7614;BME280;3848;42.016;23.098;2023-02-02T10:43:50;97202.41;;;16.88;41.21
7614;BME280;3848;42.016;23.098;2023-02-02T10:46:24;97197.28;;;16.58;40.38
7614;BME280;3848;42.016;23.098;2023-02-02T10:49:08;97191.63;;;16.76;40.80
7614;BME280;3848;42.016;23.098;2023-02-02T10:51:36;97185.06;;;16.68;40.82
7614;BME280;3848;42.016;23.098;2023-02-02T10:54:13;97190.63;;;16.53;44.50
7614;BME280;3848;42.016;23.098;2023-02-02T10:56:47;97170.06;;;15.67;45.77
7614;BME280;3848;42.016;23.098;2023-02-02T10:59:20;97179.66;;;14.92;45.62
7614;BME280;3848;42.016;23.098;2023-02-02T11:01:50;97181.94;;;14.30;46.01
7614;BME280;3848;42.016;23.098;2023-02-02T11:04:17;97182.09;;;14.23;46.50
7614;BME280;3848;42.016;23.098;2023-02-02T11:07:03;97173.88;;;14.09;46.21
7614;BME280;3848;42.016;23.098;2023-02-02T11:09:34;97169.94;;;13.94;46.97
7614;BME280;3848;42.016;23.098;2023-02-02T11:12:08;97175.38;;;13.79;46.56
7614;BME280;3848;42.016;23.098;2023-02-02T11:14:43;97175.44;;;13.74;46.20
7614;BME280;3848;42.016;23.098;2023-02-02T11:17:18;97073.19;;;12.94;48.70
7614;BME280;3848;42.016;23.098;2023-02-02T11:19:46;97161.59;;;13.42;47.68
7614;BME280;3848;42.016;23.098;2023-02-02T11:22:25;97150.69;;;13.36;47.64
7614;BME280;3848;42.016;23.098;2023-02-02T11:24:53;97153.03;;;13.88;47.46
7614;BME280;3848;42.016;23.098;2023-02-02T11:27:23;97146.09;;;14.32;46.04
7614;BME280;3848;42.016;23.098;2023-02-02T11:29:56;97147.31;;;14.54;44.64
7614;BME280;3848;42.016;23.098;2023-02-02T11:32:29;97139.94;;;14.42;45.60
7614;BME280;3848;42.016;23.098;2023-02-02T11:35:15;97148.91;;;14.21;45.50
7614;BME280;3848;42.016;23.098;2023-02-02T11:37:54;97137.53;;;13.97;45.52
7614;BME280;3848;42.016;23.098;2023-02-02T11:40:33;97127.81;;;13.71;46.03
7614;BME280;3848;42.016;23.098;2023-02-02T11:43:04;97122.31;;;13.50;46.80
7614;BME280;3848;42.016;23.098;2023-02-02T11:45:33;97124.19;;;13.41;47.08
7614;BME280;3848;42.016;23.098;2023-02-02T11:48:06;97116.03;;;13.23;46.82
7614;BME280;3848;42.016;23.098;2023-02-02T11:50:34;97116.25;;;13.09;50.39
7614;BME280;3848;42.016;23.098;2023-02-02T11:53:01;97116.53;;;12.94;50.17
7614;BME280;3848;42.016;23.098;2023-02-02T11:55:30;97095.72;;;12.67;48.44
7614;BME280;3848;42.016;23.098;2023-02-02T11:58:19;97108.41;;;12.73;45.13
7614;BME280;3848;42.016;23.098;2023-02-02T12:00:51;97114.38;;;12.72;45.99
7614;BME280;3848;42.016;23.098;2023-02-02T12:03:23;97106.06;;;12.60;47.46
7614;BME280;3848;42.016;23.098;2023-02-02T12:05:51;97101.97;;;12.51;46.30
7614;BME280;3848;42.016;23.098;2023-02-02T12:08:18;97101.72;;;12.65;46.10
7614;BME280;3848;42.016;23.098;2023-02-02T12:10:56;97093.25;;;12.64;46.51
7614;BME280;3848;42.016;23.098;2023-02-02T12:13:39;97101.81;;;12.60;44.93
7614;BME280;3848;42.016;23.098;2023-02-02T12:16:20;97097.75;;;12.48;45.50
7614;BME280;3848;42.016;23.098;2023-02-02T12:19:02;97092.19;;;12.24;43.62
7614;BME280;3848;42.016;23.098;2023-02-02T12:21:37;97091.63;;;12.05;43.53
7614;BME280;3848;42.016;23.098;2023-02-02T12:24:23;97084.31;;;11.82;44.92
7614;BME280;3848;42.016;23.098;2023-02-02T12:27:09;97088.59;;;11.77;44.96
7614;BME280;3848;42.016;23.098;2023-02-02T12:29:56;97076.84;;;11.68;46.59
7614;BME280;3848;42.016;23.098;2023-02-02T12:32:42;97070.03;;;11.70;46.00
7614;BME280;3848;42.016;23.098;2023-02-02T12:35:21;97053.25;;;11.55;46.03
7614;BME280;3848;42.016;23.098;2023-02-02T12:37:56;97063.47;;;11.54;46.25
7614;BME280;3848;42.016;23.098;2023-02-02T12:40:38;97059.19;;;11.56;46.67
7614;BME280;3848;42.016;23.098;2023-02-02T12:43:19;97054.00;;;11.62;47.50
7614;BME280;3848;42.016;23.098;2023-02-02T12:46:08;97048.88;;;11.67;47.20
7614;BME280;3848;42.016;23.098;2023-02-02T12:48:50;97037.75;;;11.72;46.10
7614;BME280;3848;42.016;23.098;2023-02-02T12:51:32;97041.91;;;11.81;45.08
7614;BME280;3848;42.016;23.098;2023-02-02T12:54:20;96998.91;;;11.59;45.15
7614;BME280;3848;42.016;23.098;2023-02-02T12:56:56;97030.00;;;11.81;45.86
7614;BME280;3848;42.016;23.098;2023-02-02T12:59:43;97045.25;;;11.83;45.29
7614;BME280;3848;42.016;23.098;2023-02-02T13:02:19;97039.31;;;11.82;44.96
7614;BME280;3848;42.016;23.098;2023-02-02T13:05:00;97035.13;;;11.80;45.42
7614;BME280;3848;42.016;23.098;2023-02-02T13:07:34;97039.25;;;11.88;44.94
7614;BME280;3848;42.016;23.098;2023-02-02T13:10:17;97029.81;;;11.95;45.07
7614;BME280;3848;42.016;23.098;2023-02-02T13:12:51;97019.72;;;11.90;45.26
7614;BME280;3848;42.016;23.098;2023-02-02T13:15:20;97023.81;;;11.99;43.97
7614;BME280;3848;42.016;23.098;2023-02-02T13:17:52;97017.03;;;11.98;44.51
7614;BME280;3848;42.016;23.098;2023-02-02T13:20:27;97011.06;;;11.99;45.78
7614;BME280;3848;42.016;23.098;2023-02-02T13:22:59;97017.81;;;12.02;46.03
7614;BME280;3848;42.016;23.098;2023-02-02T13:25:38;97010.25;;;11.97;45.00
7614;BME280;3848;42.016;23.098;2023-02-02T13:28:11;97022.03;;;12.04;44.82
7614;BME280;3848;42.016;23.098;2023-02-02T13:30:44;97008.59;;;11.95;44.55
7614;BME280;3848;42.016;23.098;2023-02-02T13:33:16;97019.56;;;12.00;45.24
7614;BME280;3848;42.016;23.098;2023-02-02T13:35:50;97021.22;;;12.01;45.22
7614;BME280;3848;42.016;23.098;2023-02-02T13:38:21;97012.88;;;11.93;45.30
7614;BME280;3848;42.016;23.098;2023-02-02T13:40:49;97020.47;;;11.96;45.29